createdAt,value
2023-05-13T00:02:27.504Z,19.20
2023-05-13T00:07:29.214Z,12.50
2023-05-13T00:12:31.231Z,21.50
2023-05-13T00:17:32.928Z,18.70
2023-05-13T00:22:34.668Z,13.50
2023-05-13T00:27:36.402Z,12.70
2023-05-13T00:32:38.063Z,16.90
2023-05-13T00:37:39.835Z,59.80
2023-05-13T00:42:41.639Z,36.30
2023-05-13T00:47:44.108Z,27.90
2023-05-13T00:52:47.819Z,22.60
2023-05-13T00:57:49.650Z,19.40
2023-05-13T01:03:09.923Z,19.50
2023-05-13T01:08:27.014Z,23.00
2023-05-13T01:13:33.179Z,9.10
2023-05-13T01:18:38.111Z,7.60
2023-05-13T01:23:39.891Z,9.00
2023-05-13T01:28:41.929Z,9.50
2023-05-13T01:33:44.476Z,15.20
2023-05-13T01:38:48.669Z,10.90
2023-05-13T01:43:50.944Z,32.40
2023-05-13T01:48:52.683Z,20.60
2023-05-13T01:53:55.276Z,15.30
2023-05-13T01:58:58.126Z,9.60
2023-05-13T02:04:00.279Z,9.80
2023-05-13T02:09:02.153Z,11.80
2023-05-13T02:14:04.247Z,11.80
2023-05-13T02:19:06.973Z,20.60
2023-05-13T02:24:09.160Z,12.30
2023-05-13T02:29:11.029Z,9.50
2023-05-13T02:34:12.882Z,16.90
2023-05-13T02:39:14.594Z,11.40
2023-05-13T02:44:16.604Z,15.20
2023-05-13T02:49:19.367Z,11.20
2023-05-13T02:54:21.328Z,12.70
2023-05-13T02:59:23.856Z,11.90
2023-05-13T03:04:25.723Z,11.20
2023-05-13T03:09:27.386Z,11.60
2023-05-13T03:14:29.186Z,12.40
2023-05-13T03:19:31.818Z,12.40
2023-05-13T03:24:34.036Z,13.60
2023-05-13T03:29:36.819Z,17.60
2023-05-13T03:34:38.997Z,13.80
2023-05-13T03:39:40.799Z,14.20
2023-05-13T03:44:42.458Z,14.70
2023-05-13T03:49:48.040Z,11.80
2023-05-13T03:54:49.764Z,14.10
2023-05-13T03:59:51.568Z,14.30
2023-05-13T04:07:12.610Z,14.20
2023-05-13T04:12:15.750Z,12.60
2023-05-13T04:17:17.578Z,13.10
2023-05-13T04:22:19.523Z,11.40
2023-05-13T04:27:21.162Z,13.00
2023-05-13T04:32:23.083Z,13.70
2023-05-13T04:37:27.463Z,10.30
2023-05-13T04:42:32.744Z,9.30
2023-05-13T04:47:37.993Z,13.20
2023-05-13T04:52:42.849Z,10.80
2023-05-13T04:57:45.671Z,14.10
2023-05-13T05:02:47.528Z,33.40
2023-05-13T05:07:49.388Z,18.20
2023-05-13T05:12:51.944Z,13.70
2023-05-13T05:17:54.000Z,16.60
2023-05-13T05:22:55.896Z,12.50
2023-05-13T05:27:59.869Z,15.70
2023-05-13T05:33:02.500Z,13.20
2023-05-13T05:38:05.225Z,15.70
2023-05-13T05:43:08.084Z,16.30
2023-05-13T05:48:10.637Z,15.10
2023-05-13T05:53:12.680Z,15.20
2023-05-13T05:58:16.369Z,16.00
2023-05-13T06:03:18.839Z,19.50
2023-05-13T06:08:20.831Z,18.10
2023-05-13T06:13:22.878Z,15.30
2023-05-13T06:18:26.191Z,12.10
2023-05-13T06:23:28.954Z,17.60
2023-05-13T06:28:30.798Z,15.20
2023-05-13T06:33:32.579Z,11.30
2023-05-13T06:38:34.868Z,10.40
2023-05-13T06:43:38.771Z,9.20
2023-05-13T06:49:02.962Z,11.50
2023-05-13T06:54:04.915Z,10.80
2023-05-13T06:59:06.619Z,9.80
2023-05-13T07:04:08.352Z,18.60
2023-05-13T07:09:10.116Z,14.10
2023-05-13T07:14:11.791Z,8.70
2023-05-13T07:19:13.529Z,6.10
2023-05-13T07:24:15.334Z,10.20
2023-05-13T07:29:16.949Z,6.70
2023-05-13T07:34:19.049Z,4.60
2023-05-13T07:39:20.718Z,7.70
2023-05-13T07:44:22.412Z,4.50
2023-05-13T07:49:24.070Z,8.70
2023-05-13T07:54:25.786Z,4.80
2023-05-13T07:59:27.706Z,4.30
2023-05-13T08:04:29.451Z,3.50
2023-05-13T08:09:31.147Z,8.60
2023-05-13T08:14:32.851Z,4.30
2023-05-13T08:19:36.248Z,5.00
2023-05-13T08:24:40.514Z,4.80
2023-05-13T08:29:42.148Z,3.90
2023-05-13T08:34:43.908Z,2.60
2023-05-13T08:39:45.947Z,5.80
2023-05-13T08:44:49.116Z,4.00
2023-05-13T08:49:52.183Z,5.30
2023-05-13T08:54:54.525Z,6.50
2023-05-13T08:59:56.206Z,3.90
2023-05-13T09:05:02.820Z,3.70
2023-05-13T09:10:06.185Z,2.90
2023-05-13T09:15:12.887Z,3.20
2023-05-13T09:20:17.280Z,4.80
2023-05-13T09:25:21.689Z,4.30
2023-05-13T09:30:28.227Z,6.60
2023-05-13T09:35:31.562Z,11.30
2023-05-13T09:40:33.273Z,13.30
2023-05-13T09:45:36.019Z,2.70
2023-05-13T09:50:48.334Z,5.60
2023-05-13T09:55:56.315Z,8.10
2023-05-13T10:00:58.594Z,4.10
2023-05-13T10:06:03.394Z,5.10
2023-05-13T10:11:07.048Z,8.40
2023-05-13T10:16:09.482Z,2.30
2023-05-13T10:21:12.748Z,4.30
2023-05-13T10:26:14.737Z,1.90
2023-05-13T10:31:17.653Z,3.90
2023-05-13T10:36:28.152Z,5.00
2023-05-13T10:42:14.856Z,4.00
2023-05-13T10:47:17.021Z,2.30
2023-05-13T10:52:19.457Z,4.00
2023-05-13T10:57:29.453Z,4.70
2023-05-13T11:02:31.815Z,3.80
2023-05-13T11:07:38.237Z,2.70
2023-05-13T11:12:39.963Z,3.40
2023-05-13T11:17:45.874Z,4.70
2023-05-13T11:22:47.621Z,2.50
2023-05-13T11:27:49.293Z,2.90
2023-05-13T11:32:51.517Z,2.10
2023-05-13T11:37:59.875Z,3.00
2023-05-13T11:43:02.308Z,3.60
2023-05-13T11:48:23.987Z,2.70
2023-05-13T11:53:25.718Z,3.50
2023-05-13T11:58:27.512Z,6.90
2023-05-13T12:03:29.194Z,5.10
2023-05-13T12:08:31.688Z,3.30
2023-05-13T12:13:33.504Z,2.30
2023-05-13T12:18:35.427Z,6.30
2023-05-13T12:23:43.222Z,2.70
2023-05-13T12:28:44.911Z,2.40
2023-05-13T12:33:49.308Z,2.80
2023-05-13T12:39:10.923Z,8.60
2023-05-13T12:44:16.167Z,3.60
2023-05-13T12:49:18.001Z,7.70
2023-05-13T12:54:19.694Z,2.90
2023-05-13T12:59:21.369Z,2.70
2023-05-13T13:04:23.359Z,3.00
2023-05-13T13:09:25.101Z,6.70
2023-05-13T13:14:26.874Z,3.60
2023-05-13T13:19:28.754Z,2.50
2023-05-13T13:24:30.550Z,2.40
2023-05-13T13:29:32.387Z,4.90
2023-05-13T13:34:34.088Z,4.00
2023-05-13T13:39:36.133Z,2.40
2023-05-13T13:44:39.427Z,4.50
2023-05-13T13:49:41.188Z,3.60
2023-05-13T13:54:42.924Z,2.70
2023-05-13T13:59:44.567Z,5.90
2023-05-13T14:04:46.468Z,6.60
2023-05-13T14:09:49.851Z,8.10
2023-05-13T14:14:51.502Z,4.30
2023-05-13T14:19:55.474Z,3.80
2023-05-13T14:24:58.702Z,4.40
2023-05-13T14:30:00.415Z,4.90
2023-05-13T14:35:02.184Z,9.30
2023-05-13T14:40:04.858Z,4.10
2023-05-13T14:45:07.197Z,8.20
2023-05-13T14:50:09.091Z,4.70
2023-05-13T14:55:11.059Z,6.10
2023-05-13T15:00:13.280Z,3.30
2023-05-13T15:05:15.043Z,4.80
2023-05-13T15:10:16.859Z,5.10
2023-05-13T15:15:18.760Z,4.80
2023-05-13T15:20:20.662Z,7.60
2023-05-13T15:25:22.594Z,5.80
2023-05-13T15:30:24.513Z,3.90
2023-05-13T15:35:26.486Z,4.40
2023-05-13T15:40:28.173Z,5.80
2023-05-13T15:45:30.064Z,3.60
2023-05-13T15:50:31.943Z,2.70
2023-05-13T15:55:34.093Z,3.90
2023-05-13T16:00:35.850Z,3.80
2023-05-13T16:05:38.644Z,3.90
2023-05-13T16:10:40.330Z,4.30
2023-05-13T16:15:42.052Z,3.20
2023-05-13T16:20:44.316Z,4.20
2023-05-13T16:25:55.756Z,4.40
2023-05-13T16:30:58.645Z,7.80
2023-05-13T16:36:00.650Z,8.80
2023-05-13T16:41:02.451Z,5.70
2023-05-13T16:46:04.262Z,6.00
2023-05-13T16:51:06.349Z,5.10
2023-05-13T16:56:08.211Z,9.40
2023-05-13T17:01:10.027Z,6.10
2023-05-13T17:06:12.572Z,5.60
2023-05-13T17:11:17.602Z,8.20
2023-05-13T17:16:19.352Z,3.50
2023-05-13T17:21:21.220Z,3.90
2023-05-13T17:26:22.914Z,3.30
2023-05-13T17:31:25.796Z,7.00
2023-05-13T17:36:27.740Z,4.40
2023-05-13T17:41:29.429Z,6.00
2023-05-13T17:46:31.104Z,6.60
2023-05-13T17:51:32.770Z,12.90
2023-05-13T17:56:34.418Z,8.30
2023-05-13T18:01:36.269Z,5.80
2023-05-13T18:06:38.007Z,4.00
2023-05-13T18:11:39.788Z,8.30
2023-05-13T18:16:41.569Z,6.70
2023-05-13T18:21:43.523Z,5.90
2023-05-13T18:26:45.156Z,8.30
2023-05-13T18:31:46.816Z,13.50
2023-05-13T18:36:51.933Z,10.20
2023-05-13T18:41:53.794Z,8.00
2023-05-13T18:46:55.443Z,12.10
2023-05-13T18:51:57.172Z,22.00
2023-05-13T18:56:59.014Z,16.10
2023-05-13T19:02:01.153Z,23.40
2023-05-13T19:07:03.051Z,19.80
2023-05-13T19:12:05.488Z,23.00
2023-05-13T19:17:07.309Z,23.40
2023-05-13T19:22:09.013Z,16.00
2023-05-13T19:27:11.187Z,11.40
2023-05-13T19:32:12.924Z,19.30
2023-05-13T19:37:14.665Z,31.60
2023-05-13T19:42:16.530Z,18.90
2023-05-13T19:47:18.284Z,28.90
2023-05-13T19:52:20.013Z,30.30
2023-05-13T19:57:21.879Z,24.90
2023-05-13T20:02:24.893Z,25.50
2023-05-13T20:07:26.769Z,23.60
2023-05-13T20:12:28.514Z,22.10
2023-05-13T20:17:30.369Z,17.80
2023-05-13T20:22:32.307Z,21.40
2023-05-13T20:27:34.816Z,25.30
2023-05-13T20:32:36.712Z,17.90
2023-05-13T20:37:38.400Z,21.80
2023-05-13T20:42:40.158Z,19.40
2023-05-13T20:47:41.833Z,19.00
2023-05-13T20:52:43.472Z,18.80
2023-05-13T20:57:46.722Z,16.40
2023-05-13T21:02:50.286Z,16.40
2023-05-13T21:07:52.590Z,19.70
2023-05-13T21:12:57.751Z,23.20
2023-05-13T21:17:59.462Z,22.00
2023-05-13T21:23:01.416Z,25.70
2023-05-13T21:28:03.951Z,29.10
2023-05-13T21:33:07.819Z,35.00
2023-05-13T21:38:11.985Z,22.10
2023-05-13T21:43:15.384Z,18.20
2023-05-13T21:48:37.130Z,17.50
2023-05-13T21:53:38.826Z,14.20
2023-05-13T21:58:40.714Z,13.10
2023-05-13T22:03:42.376Z,14.90
2023-05-13T22:08:44.257Z,13.90
2023-05-13T22:13:46.505Z,12.50
2023-05-13T22:18:50.119Z,14.80
2023-05-13T22:23:53.822Z,14.30
2023-05-13T22:28:55.752Z,15.90
2023-05-13T22:33:57.443Z,14.00
2023-05-13T22:38:59.118Z,12.90
2023-05-13T22:44:00.831Z,19.30
2023-05-13T22:49:02.645Z,19.80
2023-05-13T22:54:04.336Z,19.00
2023-05-13T22:59:06.313Z,27.30
2023-05-13T23:04:08.056Z,27.90
2023-05-13T23:09:10.298Z,24.00
2023-05-13T23:14:18.189Z,23.80
2023-05-13T23:19:19.862Z,23.00
2023-05-13T23:24:21.612Z,22.30
2023-05-13T23:29:27.469Z,20.10
2023-05-13T23:34:29.175Z,19.20
2023-05-13T23:39:33.854Z,18.90
2023-05-13T23:44:35.587Z,22.10
2023-05-13T23:50:03.219Z,15.50
2023-05-13T23:55:05.760Z,21.60
